Flight Track Log - Related Links

Times and Time Zones

All times are in EDT time to prevent confusion due to time zone crossing. See the GJS3657 flight status page for this flight to view local times or setup timezone preferences in your user account.

Time Position Orientation Groundspeed Altitude Reporting Facility
EDT Latitude Longitude Course Direction KTS MPH feet Rate Location/Type
Thu 07:08:58 AM 42.7672 -73.8061 340° North 150 173 1,100  Level Boston Center
Thu 07:09:59 AM 42.8150 -73.8297 340° North 198 228 2,900 2,329 Climbing Boston Center
Thu 07:11:30 AM 42.9058 -73.9083 328° Northwest 262 302 7,000 2,861 Climbing Boston Center
Thu 07:12:30 AM 42.9697 -73.9611 329° Northwest 267 307 10,100 2,750 Climbing Boston Center
Thu 07:13:30 AM 43.0122 -74.0386 307° West 264 304 12,500 2,150 Climbing Boston Center
Thu 07:14:30 AM 43.0356 -74.1531 286° West 295 339 14,400 1,950 Climbing Boston Center
Thu 07:15:30 AM 43.0608 -74.2703 286° West 315 362 16,400 2,000 Climbing Boston Center
Thu 07:16:30 AM 43.0858 -74.3961 285° West 338 389 18,400 1,700 Climbing Boston Center
Thu 07:17:30 AM 43.1089 -74.5106 285° West 338 389 19,800 1,550 Climbing Boston Center
Thu 07:18:30 AM 43.1336 -74.6367 285° West 344 396 21,500 1,727 Climbing Boston Center
Thu 07:19:42 AM 43.1539 -74.7683 282° West 344 396 23,600 1,818 Climbing Boston Center
Thu 07:20:42 AM 43.1819 -74.9258 284° West 349 402 25,500 1,409 Climbing Boston Center
Thu 07:21:54 AM 43.2017 -75.0633 281° West 361 415 26,700 1,091 Climbing Boston Center
Thu 07:22:54 AM 43.2186 -75.2353 278° West 373 429 27,900 1,000 Climbing Boston Center
Thu 07:24:06 AM 43.2356 -75.3842 279° West 388 447 28,900 1,045 Climbing Boston Center
Thu 07:25:06 AM 43.2514 -75.5761 277° West 388 447 30,200 1,250 Climbing Boston Center
Thu 07:26:06 AM 43.2492 -75.7269 269° West 388 447 31,400 1,200 Climbing Boston Center
Thu 07:27:06 AM 43.2450 -75.8750 268° West 388 447 32,600 1,200 Climbing Boston Center
Thu 07:28:06 AM 43.2444 -76.0206 270° West 388 447 33,800 1,045 Climbing Boston Center
Thu 07:30:27 AM 43.2167 -76.3333 263° West 380 437 36,100 955 Climbing Toronto Center
Thu 07:31:27 AM 43.2167 -76.4833 270° West 380 437 37,000 900 Climbing Toronto Center
Thu 07:32:27 AM 43.2167 -76.6167 270° West 370 426 37,900 500 Climbing Toronto Center
Thu 07:33:27 AM 43.2167 -76.7500 270° West 370 426 38,000 50 Climbing Toronto Center
Thu 07:34:27 AM 43.2167 -76.9167 270° West 380 437 38,000  Level Toronto Center
Thu 07:35:27 AM 43.2000 -77.0500 260° West 390 449 38,000  Level Toronto Center
Thu 07:36:27 AM 43.2000 -77.2167 270° West 380 437 38,000  Level Toronto Center
Thu 07:37:27 AM 43.2000 -77.3500 270° West 370 426 38,000  Level Toronto Center
Thu 07:38:27 AM 43.2000 -77.4833 270° West 360 414 38,000  Level Toronto Center
Thu 07:39:34 AM 43.2025 -77.6467 271° West 372 428 38,000  Level Cleveland Center
Thu 07:40:34 AM 43.1997 -77.7864 268° West 372 428 38,000  Level Cleveland Center
Thu 07:41:34 AM 43.1947 -77.9264 267° West 372 428 38,000  Level Cleveland Center
Thu 07:42:34 AM 43.1894 -78.0747 267° West 377 434 38,000  Level Cleveland Center
Thu 07:43:34 AM 43.1842 -78.2172 267° West 382 440 38,000  Level Cleveland Center
Thu 07:44:34 AM 43.1786 -78.3597 267° West 382 440 38,000  Level Cleveland Center
Thu 07:45:34 AM 43.1731 -78.5022 267° West 382 440 38,000  Level Cleveland Center
Thu 07:46:34 AM 43.1692 -78.6419 268° West 382 440 38,000  Level Cleveland Center
Thu 07:47:34 AM 43.1614 -78.7986 266° West 382 440 38,000  Level Cleveland Center
Thu 07:48:27 AM 43.1500 -78.9000 261° West 370 426 38,000  Level Toronto Center
Thu 07:49:27 AM 43.1500 -79.0333 270° West 380 437 38,000  Level Toronto Center
Thu 07:50:27 AM 43.1333 -79.2000 262° West 380 437 38,000  Level Toronto Center
Thu 07:51:27 AM 43.1333 -79.3333 270° West 390 449 38,000  Level Toronto Center
Thu 07:52:27 AM 43.1333 -79.4667 270° West 390 449 38,000  Level Toronto Center
Thu 07:53:27 AM 43.1333 -79.6333 270° West 390 449 38,000  Level Toronto Center
Thu 07:54:27 AM 43.1333 -79.8000 270° West 390 449 38,000  Level Toronto Center
Thu 07:55:27 AM 43.1167 -79.9333 260° West 390 449 38,000  Level Toronto Center
Thu 07:56:27 AM 43.1167 -80.0833 270° West 390 449 38,000  Level Toronto Center
Thu 07:57:27 AM 43.1167 -80.2333 270° West 400 460 38,000  Level Toronto Center
Thu 07:58:27 AM 43.1167 -80.3833 270° West 400 460 38,000  Level Toronto Center
Thu 07:59:27 AM 43.1000 -80.5167 260° West 400 460 38,000  Level Toronto Center
Thu 08:00:27 AM 43.1000 -80.6833 270° West 410 472 38,000  Level Toronto Center
Thu 08:01:27 AM 43.0833 -80.8500 262° West 410 472 38,000  Level Toronto Center
Thu 08:02:27 AM 43.0833 -81.0000 270° West 410 472 38,000  Level Toronto Center
Thu 08:03:27 AM 43.0833 -81.1667 270° West 410 472 38,000  Level Toronto Center
Thu 08:04:27 AM 43.0667 -81.3167 261° West 420 483 38,000  Level Toronto Center
Thu 08:05:27 AM 43.0667 -81.4833 270° West 420 483 38,000  Level Toronto Center
Thu 08:06:27 AM 43.0667 -81.6333 270° West 430 495 38,000  Level Toronto Center
Thu 08:07:27 AM 43.0667 -81.8000 270° West 420 483 38,000  Level Toronto Center
Thu 08:08:27 AM 43.0333 -81.9667 255° West 430 495 38,000  Level Toronto Center
Thu 08:09:27 AM 43.0333 -82.1167 270° West 420 483 38,000  Level Toronto Center
Thu 08:10:27 AM 43.0333 -82.2833 270° West 420 483 38,000  Level Toronto Center
Thu 08:11:27 AM 43.0333 -82.4333 270° West 410 472 38,000 -350 Level Toronto Center
Thu 08:12:27 AM 43.0167 -82.6000 262° West 410 472 37,300 -900 Descending Toronto Center
Thu 08:13:27 AM 43.0000 -82.7500 261° West 410 472 36,200 -1,050 Descending Toronto Center
Thu 08:14:27 AM 43.0000 -82.9000 270° West 420 483 35,200 -950 Descending Toronto Center
Thu 08:15:27 AM 43.0333 -83.0500 287° West 420 483 34,300 -1,000 Descending Toronto Center
Thu 08:16:27 AM 43.0667 -83.2167 285° West 420 483 33,200 -945 Descending Toronto Center
Thu 08:17:34 AM 43.1208 -83.3622 297° West 415 478 32,300 -567 Descending Cleveland Center
Thu 08:18:34 AM 43.1189 -83.5186 269° West 415 478 32,000 -500 Descending Cleveland Center
Thu 08:19:34 AM 43.0408 -83.6369 228° Southwest 381 438 31,300 -850 Descending Cleveland Center
Thu 08:20:34 AM 42.9483 -83.7458 221° Southwest 412 474 30,300 -650 Descending Cleveland Center
Thu 08:21:34 AM 42.8842 -83.8786 237° Southwest 418 481 30,000 -150 Descending Cleveland Center
Thu 08:22:34 AM 42.8858 -84.0375 271° West 407 468 30,000  Level Cleveland Center
Thu 08:23:34 AM 42.8847 -84.2019 270° West 420 483 30,000  Level Cleveland Center
Thu 08:24:34 AM 42.8836 -84.3661 270° West 426 490 30,000  Level Cleveland Center
Thu 08:25:34 AM 42.8847 -84.5278 271° West 431 496 30,000  Level Cleveland Center
Thu 08:26:55 AM 42.8658 -84.7575 264° West 429 494 30,000  Level Chicago Center
Thu 08:27:57 AM 42.8492 -84.9183 262° West 430 495 30,000  Level Chicago Center
Thu 08:28:59 AM 42.8325 -85.0772 262° West 424 488 30,000 -48 Level Chicago Center
Thu 08:30:01 AM 42.8153 -85.2342 262° West 420 483 29,900 -1,016 Descending Chicago Center
Thu 08:31:03 AM 42.7975 -85.3928 261° West 422 486 27,900 -1,935 Descending Chicago Center
Thu 08:32:05 AM 42.7781 -85.5464 260° West 415 478 25,900 -2,146 Descending Chicago Center
Thu 08:33:06 AM 42.7475 -85.7156 256° West 387 445 23,500 -2,146 Descending Chicago Center
Thu 08:34:08 AM 42.7219 -85.8514 256° West 373 429 21,500 -1,548 Descending Chicago Center
Thu 08:35:10 AM 42.6983 -85.9867 257° West 365 420 20,300 -726 Descending Chicago Center
Thu 08:36:12 AM 42.6717 -86.1283 256° West 379 436 20,000 -145 Descending Chicago Center
Thu 08:37:14 AM 42.6453 -86.2722 256° West 388 447 20,000 -726 Level Chicago Center
Thu 08:38:16 AM 42.6183 -86.4142 256° West 388 447 18,500 -1,512 Descending Chicago Center
Thu 08:39:17 AM 42.5928 -86.5531 256° West 381 438 16,900 -1,610 Descending Chicago Center
Thu 08:40:19 AM 42.5675 -86.6822 255° West 358 412 15,200 -1,790 Descending Chicago Center
Thu 08:41:21 AM 42.5319 -86.8336 252° West 353 406 13,200 -1,694 Descending Chicago Center
Thu 08:42:23 AM 42.4983 -86.9564 250° West 348 400 11,700 -1,452 Descending Chicago Center
Thu 08:43:25 AM 42.4639 -87.0753 249° West 343 395 10,200 -1,024 Descending Chicago Center
Thu 08:44:26 AM 42.4364 -87.1767 250° West 300 345 9,600 -732 Descending Chicago Center
Thu 08:45:28 AM 42.4089 -87.2756 249° West 283 326 8,700 -968 Descending Chicago Center
Thu 08:46:30 AM 42.3833 -87.3747 251° West 278 320 7,600 -1,113 Descending Chicago Center
Thu 08:47:32 AM 42.3508 -87.4869 249° West 275 316 6,400 -774 Descending Chicago Center
Thu 08:48:34 AM 42.3189 -87.5736 244° Southwest 265 305 6,000 -194 Descending Chicago Center
Thu 08:49:36 AM 42.2408 -87.5656 176° South 275 316 6,000  Level Chicago Center
Thu 08:50:37 AM 42.1669 -87.5581 176° South 268 308 6,000 -49 Level Chicago Center
Thu 08:51:39 AM 42.0958 -87.5478 174° South 260 299 5,900 -629 Descending Chicago Center
Thu 08:52:41 AM 42.0369 -87.5881 207° Southwest 233 268 4,700 -919 Descending Chicago Center
Thu 08:53:43 AM 42.0044 -87.6556 237° Southwest 222 255 4,000 -774 Descending Chicago Center
Thu 08:54:45 AM 42.0031 -87.7350 269° West 218 251 3,100 -968 Descending Chicago Center
Thu 08:55:47 AM 42.0036 -87.8072 271° West 203 234 2,000 -919 Descending Chicago Center
Thu 08:56:49 AM 42.0031 -87.8669 269° West 183 211 1,200 -435 Descending Chicago Center
Thu 08:57:51 AM 42.0036 -87.9239 271° West 178 205 1,100 -97 Descending Chicago Center
Thu 08:59:00 AM 41.9817 -87.9067 206° Southwest  Level Estimated

Login

Don't have an account? Register now (free) for customized features, flight alerts, and more!